Augusta, Kansas
Current Conditions -  °F | °C
As of 2:55 AM on Monday 20 Oct 2014 (Local Time) from KEQA Reporting Station
Overcast Overcast  
Wind Chill: 59°   Ceiling: 7500
Heat Index: 59°   Visibility: 10mi
Dew Point: 54°   Wind: 6mph
Humidity: 82%   Direction: 200°SSW
Pressure: 30.02"   Gusts: NA
Location:  37.68°N, 96.98°W
Report Text: KEQA 200755Z AUTO 20005KT 10SM SCT060 OVC075 15/12 A3002 RMK AO2
Loading
Personal Weather Stations






























Interactive Weather Map
Tropical Storm Tracking
New forecast layout! Learn more

10-Day Weather Forecast

Advertisements
Track Severe Weather on mobile